createdAt,value
2018-11-10T00:00:44.772Z,23.20
2018-11-10T00:03:23.841Z,23.60
2018-11-10T00:06:02.933Z,23.22
2018-11-10T00:08:41.427Z,23.62
2018-11-10T00:11:21.339Z,24.60
2018-11-10T00:14:01.132Z,23.75
2018-11-10T00:16:41.829Z,23.38
2018-11-10T00:19:22.140Z,23.45
2018-11-10T00:22:01.432Z,24.90
2018-11-10T00:24:41.545Z,23.85
2018-11-10T00:27:20.213Z,22.22
2018-11-10T00:29:59.427Z,25.75
2018-11-10T00:32:38.945Z,22.73
2018-11-10T00:35:18.987Z,23.10
2018-11-10T00:37:56.633Z,24.40
2018-11-10T00:40:36.632Z,23.42
2018-11-10T00:43:16.337Z,23.57
2018-11-10T00:45:56.153Z,24.27
2018-11-10T00:48:35.122Z,24.02
2018-11-10T00:51:16.636Z,25.48
2018-11-10T00:53:55.528Z,23.10
2018-11-10T00:56:35.817Z,23.92
2018-11-10T00:59:16.633Z,24.45
2018-11-10T01:01:56.202Z,24.47
2018-11-10T01:04:35.415Z,24.87
2018-11-10T01:07:15.387Z,22.80
2018-11-10T01:09:55.228Z,27.07
2018-11-10T01:12:34.070Z,25.80
2018-11-10T01:15:14.812Z,27.55
2018-11-10T01:17:56.299Z,26.55
2018-11-10T01:20:35.368Z,25.48
2018-11-10T01:23:16.632Z,24.63
2018-11-10T01:25:56.473Z,23.27
2018-11-10T01:28:34.466Z,24.63
2018-11-10T01:31:13.984Z,23.15
2018-11-10T01:33:53.901Z,23.20
2018-11-10T01:36:31.992Z,25.97
2018-11-10T01:39:12.019Z,21.95
2018-11-10T01:41:51.645Z,24.65
2018-11-10T01:44:30.841Z,25.05
2018-11-10T01:47:13.754Z,25.68
2018-11-10T01:49:52.169Z,26.65
2018-11-10T01:52:33.063Z,24.65
2018-11-10T01:55:13.053Z,24.65
2018-11-10T01:57:52.772Z,26.12
2018-11-10T02:00:32.838Z,25.15
2018-11-10T02:03:12.405Z,25.57
2018-11-10T02:05:51.423Z,26.95
2018-11-10T02:08:30.463Z,24.90
2018-11-10T02:11:09.727Z,26.75
2018-11-10T02:13:50.719Z,23.77
2018-11-10T02:16:30.788Z,23.67
2018-11-10T02:19:11.131Z,25.60
2018-11-10T02:21:50.697Z,25.62
2018-11-10T02:24:32.637Z,26.95
2018-11-10T02:27:16.276Z,25.43
2018-11-10T02:29:56.633Z,24.47
2018-11-10T02:32:37.834Z,25.57
2018-11-10T02:35:17.429Z,25.15
2018-11-10T02:37:55.944Z,24.95
2018-11-10T02:40:37.762Z,24.25
2018-11-10T02:43:16.632Z,25.00
2018-11-10T02:45:58.090Z,23.47
2018-11-10T02:48:38.760Z,25.48
2018-11-10T02:51:19.546Z,25.02
2018-11-10T02:53:57.491Z,23.95
2018-11-10T02:56:37.705Z,25.60
2018-11-10T02:59:16.631Z,22.90
2018-11-10T03:01:56.637Z,23.65
2018-11-10T03:04:35.158Z,22.67
2018-11-10T03:07:14.546Z,24.00
2018-11-10T03:09:54.113Z,23.45
2018-11-10T03:12:34.533Z,23.62
2018-11-10T03:15:13.822Z,24.72
2018-11-10T03:17:51.987Z,25.75
2018-11-10T03:20:33.307Z,23.20
2018-11-10T03:23:03.621Z,26.80
2018-11-10T03:25:38.825Z,23.05
2018-11-10T03:28:16.634Z,24.50
2018-11-10T03:30:55.422Z,24.65
2018-11-10T03:33:36.632Z,26.80
2018-11-10T03:36:17.106Z,23.05
2018-11-10T03:38:53.733Z,22.75
2018-11-10T03:41:33.312Z,26.45
2018-11-10T03:44:14.805Z,24.10
2018-11-10T03:46:49.093Z,23.95
2018-11-10T03:49:28.419Z,23.95
2018-11-10T03:52:09.004Z,26.48
2018-11-10T03:54:48.471Z,27.67
2018-11-10T03:57:27.484Z,27.48
2018-11-10T04:00:06.106Z,28.00
2018-11-10T04:02:44.368Z,25.55
2018-11-10T04:05:19.559Z,27.22
2018-11-10T04:07:58.355Z,27.65
2018-11-10T04:10:38.048Z,24.65
2018-11-10T04:13:18.912Z,26.33
2018-11-10T04:15:58.952Z,25.82
2018-11-10T04:18:40.193Z,28.90
2018-11-10T04:21:19.965Z,24.80
2018-11-10T04:23:59.498Z,26.25
2018-11-10T04:26:37.061Z,27.13
2018-11-10T04:29:16.583Z,26.45
2018-11-10T04:31:54.476Z,24.72
2018-11-10T04:34:34.043Z,24.95
2018-11-10T04:37:13.333Z,26.05
2018-11-10T04:39:55.425Z,23.18
2018-11-10T04:42:34.665Z,24.87
2018-11-10T04:45:14.656Z,27.80
2018-11-10T04:47:53.624Z,27.58
2018-11-10T04:50:33.339Z,27.93
2018-11-10T04:53:13.333Z,25.12
2018-11-10T04:55:53.076Z,26.62
2018-11-10T04:58:33.766Z,23.35
2018-11-10T05:01:13.549Z,25.55
2018-11-10T05:03:56.633Z,27.02
2018-11-10T05:06:35.614Z,30.05
2018-11-10T05:09:16.630Z,28.52
2018-11-10T05:11:55.921Z,35.85
2018-11-10T05:14:36.014Z,34.00
2018-11-10T05:17:16.633Z,29.25
2018-11-10T05:19:56.470Z,26.37
2018-11-10T05:22:35.687Z,26.25
2018-11-10T05:25:16.406Z,31.65
2018-11-10T05:27:55.545Z,25.80
2018-11-10T05:30:34.034Z,25.12
2018-11-10T05:33:13.452Z,27.82
2018-11-10T05:35:53.231Z,23.38
2018-11-10T05:38:33.285Z,27.60
2018-11-10T05:41:13.630Z,30.25
2018-11-10T05:43:53.247Z,26.10
2018-11-10T05:46:32.911Z,29.12
2018-11-10T05:49:12.927Z,26.00
2018-11-10T05:51:51.966Z,28.60
2018-11-10T05:54:33.264Z,30.68
2018-11-10T05:57:11.542Z,30.60
2018-11-10T05:59:50.791Z,26.35
2018-11-10T06:02:30.157Z,25.77
2018-11-10T06:05:14.552Z,29.15
2018-11-10T06:07:53.763Z,26.48
2018-11-10T06:10:31.714Z,22.67
2018-11-10T06:13:12.049Z,24.67
2018-11-10T06:15:52.903Z,29.40
2018-11-10T06:18:33.360Z,30.05
2018-11-10T06:21:13.198Z,28.47
2018-11-10T06:23:52.140Z,26.42
2018-11-10T06:26:32.481Z,29.70
2018-11-10T06:29:11.525Z,27.22
2018-11-10T06:31:50.335Z,31.17
2018-11-10T06:34:28.405Z,36.93
2018-11-10T06:37:08.970Z,28.75
2018-11-10T06:39:46.633Z,28.12
2018-11-10T06:42:26.429Z,31.70
2018-11-10T06:45:06.631Z,27.50
2018-11-10T06:47:46.631Z,24.92
2018-11-10T06:50:26.631Z,25.35
2018-11-10T06:53:04.775Z,26.73
2018-11-10T06:55:45.512Z,30.20
2018-11-10T06:58:24.902Z,28.12
2018-11-10T07:01:05.692Z,26.75
2018-11-10T07:03:45.681Z,24.63
2018-11-10T07:06:24.701Z,24.70
2018-11-10T07:09:06.319Z,25.20
2018-11-10T07:11:46.209Z,25.10
2018-11-10T07:14:26.629Z,28.47
2018-11-10T07:17:06.629Z,24.82
2018-11-10T07:19:46.632Z,27.35
2018-11-10T07:22:26.630Z,23.80
2018-11-10T07:25:05.733Z,27.60
2018-11-10T07:27:46.630Z,24.90
2018-11-10T07:30:26.631Z,23.80
2018-11-10T07:33:06.541Z,27.22
2018-11-10T07:35:50.556Z,24.60
2018-11-10T07:38:30.173Z,26.73
2018-11-10T07:41:10.514Z,26.48
2018-11-10T07:43:50.056Z,25.02
2018-11-10T07:46:29.696Z,24.90
2018-11-10T07:49:08.006Z,23.90
2018-11-10T07:51:46.632Z,27.50
2018-11-10T07:54:25.676Z,25.25
2018-11-10T07:57:06.414Z,26.85
2018-11-10T07:59:46.631Z,29.07
2018-11-10T08:02:26.619Z,24.12
2018-11-10T08:05:06.263Z,26.87
2018-11-10T08:07:46.630Z,24.87
2018-11-10T08:10:26.546Z,23.85
2018-11-10T08:13:04.812Z,27.25
2018-11-10T08:15:44.054Z,25.10
2018-11-10T08:18:24.030Z,26.02
2018-11-10T08:21:02.362Z,24.87
2018-11-10T08:23:43.174Z,23.70
2018-11-10T08:26:22.444Z,25.32
2018-11-10T08:29:02.359Z,24.52
2018-11-10T08:31:43.776Z,24.27
2018-11-10T08:34:23.366Z,26.52
2018-11-10T08:37:03.184Z,24.07
2018-11-10T08:39:44.150Z,24.45
2018-11-10T08:42:21.925Z,23.90
2018-11-10T08:45:03.556Z,22.93
2018-11-10T08:47:42.189Z,25.32
2018-11-10T08:50:23.766Z,26.60
2018-11-10T08:53:02.311Z,26.45
2018-11-10T08:55:43.274Z,27.77
2018-11-10T08:58:21.967Z,25.32
2018-11-10T09:01:00.134Z,27.60
2018-11-10T09:03:38.750Z,25.92
2018-11-10T09:06:18.089Z,24.57
2018-11-10T09:08:56.381Z,27.05
2018-11-10T09:11:36.630Z,25.92
2018-11-10T09:14:15.665Z,24.12
2018-11-10T09:16:55.432Z,25.25
2018-11-10T09:19:35.174Z,25.45
2018-11-10T09:22:16.336Z,24.67
2018-11-10T09:24:56.130Z,26.20
2018-11-10T09:27:35.946Z,25.85
2018-11-10T09:30:16.629Z,29.37
2018-11-10T09:32:57.781Z,24.45
2018-11-10T09:35:36.630Z,25.35
2018-11-10T09:38:16.287Z,25.23
2018-11-10T09:40:54.428Z,24.95
2018-11-10T09:43:33.976Z,24.90
2018-11-10T09:46:13.888Z,25.30
2018-11-10T09:48:52.231Z,24.07
2018-11-10T09:51:32.469Z,25.25
2018-11-10T09:54:12.859Z,25.50
2018-11-10T09:56:52.480Z,26.23
2018-11-10T09:59:31.447Z,24.00
2018-11-10T10:02:11.723Z,26.35
2018-11-10T10:04:51.806Z,26.27
2018-11-10T10:07:33.248Z,23.70
2018-11-10T10:10:12.440Z,25.40
2018-11-10T10:12:52.507Z,21.87
2018-11-10T10:15:32.321Z,24.85
2018-11-10T10:18:12.887Z,23.80
2018-11-10T10:20:52.277Z,22.13
2018-11-10T10:23:33.545Z,26.25
2018-11-10T10:26:14.786Z,23.32
2018-11-10T10:28:54.683Z,25.32
2018-11-10T10:31:33.741Z,25.23
2018-11-10T10:34:14.158Z,27.15
2018-11-10T10:36:54.779Z,25.15
2018-11-10T10:39:34.645Z,23.60
2018-11-10T10:42:13.713Z,24.20
2018-11-10T10:44:53.076Z,24.57
2018-11-10T10:47:33.844Z,22.17
2018-11-10T10:50:12.960Z,24.07
2018-11-10T10:52:52.801Z,23.42
2018-11-10T10:55:33.018Z,23.77
2018-11-10T10:58:13.113Z,24.07
2018-11-10T11:00:54.850Z,26.80
2018-11-10T11:03:39.098Z,24.55
2018-11-10T11:06:18.285Z,24.20
2018-11-10T11:08:58.818Z,25.45
2018-11-10T11:11:38.491Z,24.57
2018-11-10T11:14:18.959Z,27.10
2018-11-10T11:16:58.297Z,22.90
2018-11-10T11:19:39.489Z,26.90
2018-11-10T11:22:21.056Z,24.00
2018-11-10T11:25:01.202Z,22.93
2018-11-10T11:27:41.535Z,22.73
2018-11-10T11:30:20.933Z,23.75
2018-11-10T11:33:00.674Z,23.02
2018-11-10T11:35:40.768Z,24.82
2018-11-10T11:38:20.557Z,25.82
2018-11-10T11:41:01.344Z,25.80
2018-11-10T11:43:40.563Z,24.40
2018-11-10T11:46:19.907Z,27.67
2018-11-10T11:49:00.548Z,25.20
2018-11-10T11:51:40.463Z,25.72
2018-11-10T11:54:07.983Z,24.10
2018-11-10T11:56:35.847Z,23.90
2018-11-10T11:59:14.865Z,23.85
2018-11-10T12:01:45.583Z,26.48
2018-11-10T12:04:19.289Z,26.60
2018-11-10T12:06:47.803Z,25.97
2018-11-10T12:09:16.137Z,25.32
2018-11-10T12:11:44.901Z,28.57
2018-11-10T12:14:13.580Z,27.22
2018-11-10T12:16:45.939Z,27.20
2018-11-10T12:19:13.938Z,24.65
2018-11-10T12:21:46.198Z,30.20
2018-11-10T12:24:21.607Z,29.40
2018-11-10T12:27:01.603Z,30.35
2018-11-10T12:29:41.095Z,32.45
2018-11-10T12:32:20.688Z,31.05
2018-11-10T12:34:58.780Z,39.00
2018-11-10T12:37:36.628Z,26.95
2018-11-10T12:40:17.585Z,27.15
2018-11-10T12:42:57.978Z,27.98
2018-11-10T12:45:36.688Z,28.60
2018-11-10T12:48:15.784Z,28.12
2018-11-10T12:50:56.629Z,28.60
2018-11-10T12:53:34.082Z,29.42
2018-11-10T12:56:04.496Z,27.55
2018-11-10T12:58:43.557Z,30.92
2018-11-10T13:01:23.396Z,28.20
2018-11-10T13:04:02.185Z,30.05
2018-11-10T13:06:31.066Z,28.83
2018-11-10T13:09:09.904Z,34.00
2018-11-10T13:11:49.373Z,29.15
2018-11-10T13:14:28.345Z,32.80
2018-11-10T13:17:02.948Z,35.50
2018-11-10T13:19:40.987Z,35.35
2018-11-10T13:22:20.857Z,28.83
2018-11-10T13:24:59.798Z,30.32
2018-11-10T13:27:42.765Z,33.00
2018-11-10T13:30:21.804Z,35.15
2018-11-10T13:32:58.346Z,31.87
2018-11-10T13:35:38.164Z,30.62
2018-11-10T13:38:18.006Z,32.95
2018-11-10T13:40:59.122Z,26.27
2018-11-10T13:43:41.350Z,28.38
2018-11-10T13:46:19.981Z,26.95
2018-11-10T13:49:00.225Z,29.30
2018-11-10T13:51:39.989Z,27.20
2018-11-10T13:54:18.010Z,29.25
2018-11-10T13:56:57.847Z,26.02
2018-11-10T13:59:37.862Z,28.55
2018-11-10T14:02:10.102Z,29.50
2018-11-10T14:04:44.548Z,30.17
2018-11-10T14:07:16.955Z,28.35
2018-11-10T14:09:56.331Z,27.35
2018-11-10T14:12:36.485Z,26.77
2018-11-10T14:15:13.258Z,36.50
2018-11-10T14:17:43.378Z,29.52
2018-11-10T14:20:23.025Z,24.80
2018-11-10T14:23:03.092Z,27.90
2018-11-10T14:25:42.279Z,26.35
2018-11-10T14:28:18.944Z,27.42
2018-11-10T14:30:53.412Z,31.07
2018-11-10T14:33:31.092Z,26.37
2018-11-10T14:36:09.397Z,32.13
2018-11-10T14:38:48.657Z,28.77
2018-11-10T14:41:26.629Z,27.37
2018-11-10T14:44:08.694Z,28.00
2018-11-10T14:46:47.431Z,27.90
2018-11-10T14:49:27.506Z,27.90
2018-11-10T14:52:07.893Z,26.70
2018-11-10T14:54:47.737Z,27.90
2018-11-10T14:57:26.631Z,27.62
2018-11-10T15:00:04.694Z,25.37
2018-11-10T15:02:44.589Z,25.65
2018-11-10T15:05:25.831Z,24.60
2018-11-10T15:08:02.847Z,28.00
2018-11-10T15:10:44.561Z,30.40
2018-11-10T15:13:24.229Z,27.02
2018-11-10T15:16:04.045Z,26.48
2018-11-10T15:18:44.333Z,27.77
2018-11-10T15:21:19.850Z,26.82
2018-11-10T15:23:56.629Z,29.77
2018-11-10T15:26:35.358Z,27.30
2018-11-10T15:29:12.901Z,26.00
2018-11-10T15:31:50.644Z,27.75
2018-11-10T15:34:30.964Z,27.05
2018-11-10T15:37:11.577Z,30.70
2018-11-10T15:39:50.197Z,29.10
2018-11-10T15:42:20.509Z,26.85
2018-11-10T15:44:59.300Z,28.73
2018-11-10T15:47:38.736Z,32.95
2018-11-10T15:50:16.574Z,31.60
2018-11-10T15:52:54.877Z,33.33
2018-11-10T15:55:26.630Z,30.32
2018-11-10T15:58:06.641Z,31.30
2018-11-10T16:00:45.453Z,28.17
2018-11-10T16:03:23.969Z,32.95
2018-11-10T16:06:05.709Z,29.00
2018-11-10T16:08:46.630Z,25.48
2018-11-10T16:11:25.141Z,28.50
2018-11-10T16:14:03.232Z,22.90
2018-11-10T16:16:42.451Z,30.00
2018-11-10T16:19:22.619Z,27.00
2018-11-10T16:22:02.307Z,25.52
2018-11-10T16:24:42.801Z,25.95
2018-11-10T16:27:22.264Z,24.12
2018-11-10T16:30:03.079Z,25.10
2018-11-10T16:32:42.973Z,24.75
2018-11-10T16:35:24.214Z,24.43
2018-11-10T16:37:59.982Z,23.45
2018-11-10T16:40:38.798Z,23.22
2018-11-10T16:43:20.690Z,25.75
2018-11-10T16:45:59.481Z,24.57
2018-11-10T16:48:37.522Z,25.10
2018-11-10T16:51:17.788Z,27.48
2018-11-10T16:53:56.630Z,27.00
2018-11-10T16:56:36.473Z,24.90
2018-11-10T16:59:16.630Z,27.13
2018-11-10T17:01:53.589Z,26.77
2018-11-10T17:04:36.629Z,24.65
2018-11-10T17:07:14.211Z,25.37
2018-11-10T17:09:55.552Z,22.98
2018-11-10T17:12:35.569Z,23.65
2018-11-10T17:15:14.714Z,24.47
2018-11-10T17:17:53.729Z,22.30
2018-11-10T17:20:33.270Z,24.52
2018-11-10T17:23:13.360Z,25.80
2018-11-10T17:25:53.478Z,24.45
2018-11-10T17:28:33.024Z,25.17
2018-11-10T17:31:12.860Z,24.65
2018-11-10T17:33:52.326Z,23.47
2018-11-10T17:36:32.617Z,23.95
2018-11-10T17:39:12.948Z,24.07
2018-11-10T17:41:51.533Z,21.60
2018-11-10T17:44:31.669Z,26.30
2018-11-10T17:47:10.854Z,26.15
2018-11-10T17:49:50.497Z,24.32
2018-11-10T17:52:29.550Z,23.98
2018-11-10T17:55:09.906Z,21.97
2018-11-10T17:57:43.180Z,24.75
2018-11-10T18:00:25.364Z,24.65
2018-11-10T18:03:04.145Z,21.95
2018-11-10T18:05:48.047Z,26.33
2018-11-10T18:08:27.591Z,24.12
2018-11-10T18:11:07.854Z,21.12
2018-11-10T18:13:46.630Z,22.73
2018-11-10T18:16:26.628Z,22.75
2018-11-10T18:19:06.708Z,22.25
2018-11-10T18:21:46.005Z,21.50
2018-11-10T18:24:26.411Z,24.75
2018-11-10T18:27:01.062Z,27.60
2018-11-10T18:29:40.446Z,25.00
2018-11-10T18:32:21.043Z,24.05
2018-11-10T18:35:00.529Z,25.23
2018-11-10T18:37:40.570Z,24.60
2018-11-10T18:40:20.359Z,24.20
2018-11-10T18:42:59.080Z,25.43
2018-11-10T18:45:39.944Z,23.25
2018-11-10T18:48:19.686Z,22.30
2018-11-10T18:50:58.839Z,24.75
2018-11-10T18:53:39.241Z,25.48
2018-11-10T18:56:20.909Z,26.37
2018-11-10T18:59:02.176Z,23.27
2018-11-10T19:01:41.422Z,23.27
2018-11-10T19:04:20.486Z,23.38
2018-11-10T19:07:00.001Z,21.80
2018-11-10T19:09:40.692Z,21.90
2018-11-10T19:12:20.805Z,24.77
2018-11-10T19:15:01.576Z,22.82
2018-11-10T19:17:40.418Z,24.55
2018-11-10T19:20:21.204Z,21.55
2018-11-10T19:23:01.302Z,21.62
2018-11-10T19:25:40.512Z,25.77
2018-11-10T19:28:20.582Z,22.45
2018-11-10T19:31:00.100Z,23.25
2018-11-10T19:33:40.538Z,21.25
2018-11-10T19:36:18.531Z,24.02
2018-11-10T19:39:00.544Z,23.85
2018-11-10T19:41:37.287Z,24.32
2018-11-10T19:44:16.527Z,24.23
2018-11-10T19:46:53.993Z,23.77
2018-11-10T19:49:31.991Z,24.60
2018-11-10T19:52:13.568Z,21.82
2018-11-10T19:54:54.147Z,26.52
2018-11-10T19:57:33.112Z,21.68
2018-11-10T20:00:12.405Z,24.10
2018-11-10T20:02:53.545Z,22.48
2018-11-10T20:05:33.312Z,23.35
2018-11-10T20:08:13.103Z,24.75
2018-11-10T20:10:53.044Z,24.32
2018-11-10T20:13:32.635Z,28.62
2018-11-10T20:16:12.026Z,30.57
2018-11-10T20:18:50.703Z,25.88
2018-11-10T20:21:30.585Z,27.45
2018-11-10T20:24:09.688Z,31.45
2018-11-10T20:26:50.468Z,34.92
2018-11-10T20:29:30.083Z,27.37
2018-11-10T20:32:11.050Z,25.23
2018-11-10T20:34:38.793Z,23.52
2018-11-10T20:37:20.331Z,30.65
2018-11-10T20:39:58.849Z,25.52
2018-11-10T20:42:26.870Z,29.63
2018-11-10T20:45:03.568Z,28.00
2018-11-10T20:47:40.373Z,27.93
2018-11-10T20:50:20.216Z,27.82
2018-11-10T20:53:00.532Z,24.25
2018-11-10T20:55:38.720Z,25.45
2018-11-10T20:58:18.162Z,25.62
2018-11-10T21:00:56.391Z,23.12
2018-11-10T21:03:35.522Z,22.02
2018-11-10T21:06:15.065Z,24.63
2018-11-10T21:08:56.239Z,23.05
2018-11-10T21:11:36.544Z,23.65
2018-11-10T21:14:16.263Z,24.92
2018-11-10T21:16:55.881Z,25.12
2018-11-10T21:19:36.196Z,22.00
2018-11-10T21:22:18.862Z,20.70
2018-11-10T21:24:58.930Z,19.98
2018-11-10T21:27:41.770Z,19.82
2018-11-10T21:30:23.512Z,22.80
2018-11-10T21:33:03.952Z,21.93
2018-11-10T21:35:42.053Z,19.25
2018-11-10T21:38:22.761Z,23.15
2018-11-10T21:41:02.305Z,20.37
2018-11-10T21:43:46.652Z,23.07
2018-11-10T21:46:24.117Z,22.75
2018-11-10T21:49:04.609Z,24.30
2018-11-10T21:51:40.714Z,21.57
2018-11-10T21:54:20.706Z,19.12
2018-11-10T21:57:00.598Z,21.37
2018-11-10T21:59:43.338Z,20.65
2018-11-10T22:02:22.913Z,19.20
2018-11-10T22:05:03.400Z,18.87
2018-11-10T22:07:43.191Z,21.15
2018-11-10T22:10:25.230Z,19.30
2018-11-10T22:13:03.997Z,20.10
2018-11-10T22:15:43.271Z,20.37
2018-11-10T22:18:23.330Z,21.27
2018-11-10T22:21:03.180Z,20.23
2018-11-10T22:23:42.964Z,21.42
2018-11-10T22:26:23.381Z,18.52
2018-11-10T22:29:02.097Z,21.30
2018-11-10T22:31:43.062Z,19.15
2018-11-10T22:34:24.179Z,21.68
2018-11-10T22:37:04.969Z,20.02
2018-11-10T22:39:44.362Z,17.37
2018-11-10T22:42:23.864Z,21.30
2018-11-10T22:45:03.392Z,20.25
2018-11-10T22:47:43.466Z,19.82
2018-11-10T22:50:29.350Z,19.77
2018-11-10T22:53:10.093Z,20.37
2018-11-10T22:55:48.864Z,24.82
2018-11-10T22:58:28.053Z,21.85
2018-11-10T23:01:11.913Z,23.30
2018-11-10T23:03:53.008Z,23.55
2018-11-10T23:06:31.474Z,20.02
2018-11-10T23:09:12.888Z,24.05
2018-11-10T23:11:51.607Z,25.30
2018-11-10T23:14:30.373Z,23.98
2018-11-10T23:17:08.442Z,20.12
2018-11-10T23:19:48.329Z,19.48
2018-11-10T23:22:28.455Z,19.23
2018-11-10T23:25:11.340Z,18.23
2018-11-10T23:27:50.356Z,18.57
2018-11-10T23:30:29.005Z,18.40
2018-11-10T23:33:06.630Z,20.17
2018-11-10T23:35:42.855Z,18.40
2018-11-10T23:38:23.346Z,19.73
2018-11-10T23:41:03.313Z,19.77
2018-11-10T23:43:42.480Z,21.73
2018-11-10T23:46:22.442Z,19.95
2018-11-10T23:49:01.363Z,21.45
2018-11-10T23:51:40.880Z,22.00
2018-11-10T23:54:19.570Z,19.87
2018-11-10T23:57:00.286Z,20.50
2018-11-10T23:59:39.528Z,19.75
